createdAt,value
2023-04-08T08:13:50.068Z,83.61
2023-04-08T08:14:54.659Z,83.52
2023-04-08T08:19:43.817Z,80.22
2023-04-08T08:20:45.370Z,79.96
2023-04-08T08:21:46.886Z,79.60
2023-04-08T08:22:57.394Z,79.63
2023-04-08T08:23:59.607Z,79.53
2023-04-08T08:25:01.078Z,79.90
2023-04-08T08:46:58.864Z,78.50
2023-04-08T08:48:01.335Z,77.95
2023-04-08T08:49:02.996Z,77.39
2023-04-08T08:50:05.144Z,75.60
2023-04-08T08:51:12.053Z,74.88
2023-04-08T08:52:18.031Z,74.91
2023-04-08T08:53:23.233Z,75.21
2023-04-08T08:54:24.639Z,73.79
2023-04-08T08:55:44.839Z,72.69
2023-04-08T08:56:48.979Z,70.86
2023-04-08T08:57:51.238Z,71.17
2023-04-08T08:58:53.120Z,71.56
2023-04-08T08:59:54.633Z,71.03
2023-04-08T09:00:56.447Z,71.01
2023-04-08T09:01:57.927Z,70.04
2023-04-08T09:03:18.001Z,70.40
2023-04-08T09:04:22.609Z,68.62
2023-04-08T09:05:24.480Z,68.11
2023-04-08T09:06:26.314Z,68.78
2023-04-08T09:07:29.875Z,68.84
2023-04-08T09:08:38.088Z,68.57
2023-04-08T09:09:52.575Z,66.81
2023-04-08T09:10:55.618Z,65.97
2023-04-08T09:12:04.512Z,65.22
2023-04-08T09:13:05.879Z,65.18
2023-04-08T09:14:26.253Z,64.48
2023-04-08T09:15:27.818Z,65.56
2023-04-08T09:16:31.210Z,65.34
2023-04-08T09:17:39.909Z,65.80
2023-04-08T09:18:44.559Z,65.76
2023-04-08T09:20:11.704Z,65.62
2023-04-08T09:21:14.709Z,66.12
2023-04-08T09:22:16.442Z,65.99
2023-04-08T09:23:17.773Z,65.62
2023-04-08T09:24:30.579Z,66.01
2023-04-08T09:25:34.115Z,66.55
2023-04-08T09:26:37.521Z,66.62
2023-04-08T09:27:39.096Z,65.88
2023-04-08T09:28:41.682Z,65.34
2023-04-08T09:29:43.451Z,64.23
2023-04-08T09:30:44.860Z,64.61
2023-04-08T09:31:47.500Z,64.33
2023-04-08T09:32:51.214Z,63.76
2023-04-08T09:34:10.541Z,63.20
2023-04-08T09:35:12.026Z,63.22
2023-04-08T09:36:13.678Z,62.08
2023-04-08T09:37:15.526Z,61.58
2023-04-08T09:38:17.240Z,60.95
2023-04-08T09:39:19.265Z,60.28
2023-04-08T09:40:21.930Z,60.23
2023-04-08T09:41:24.301Z,59.83
2023-04-08T09:42:26.230Z,59.80
2023-04-08T09:43:27.929Z,61.30
2023-04-08T09:44:31.616Z,60.92
2023-04-08T09:45:36.799Z,62.53
2023-04-08T09:46:50.473Z,59.63
2023-04-08T09:47:58.235Z,57.19
2023-04-08T09:49:29.628Z,58.18
2023-04-08T09:50:40.465Z,56.54
2023-04-08T09:52:07.233Z,54.46
2023-04-08T09:53:15.622Z,55.46
2023-04-08T09:54:23.150Z,55.89
2023-04-08T09:55:27.754Z,55.52
2023-04-08T09:56:41.887Z,56.40
2023-04-08T09:57:46.635Z,56.38
2023-04-08T09:59:10.079Z,55.23
2023-04-08T10:00:17.405Z,54.64
2023-04-08T10:01:26.888Z,54.22
2023-04-08T10:02:34.035Z,53.44
2023-04-08T10:03:41.229Z,53.39
2023-04-08T10:04:48.921Z,52.66
2023-04-08T10:05:53.232Z,52.19
2023-04-08T10:06:59.956Z,52.02
2023-04-08T10:08:01.410Z,52.46
2023-04-08T10:09:04.318Z,52.65
2023-04-08T10:10:07.646Z,53.59
2023-04-08T10:11:09.347Z,53.86
2023-04-08T10:12:10.826Z,53.39
2023-04-08T10:13:12.613Z,54.12
2023-04-08T10:14:14.017Z,54.80
2023-04-08T10:15:36.844Z,55.35
2023-04-08T10:16:38.788Z,53.34
2023-04-08T10:17:40.298Z,53.40
2023-04-08T10:18:43.008Z,54.12
2023-04-08T10:19:44.645Z,53.87
2023-04-08T10:20:49.630Z,53.94
2023-04-08T10:21:51.005Z,53.83
2023-04-08T10:22:52.390Z,55.78
2023-04-08T10:23:56.677Z,56.30
2023-04-08T10:25:16.710Z,56.17
2023-04-08T10:26:34.854Z,55.05
2023-04-08T10:27:42.665Z,55.20
2023-04-08T10:28:44.035Z,56.87
2023-04-08T10:29:46.378Z,56.88
2023-04-08T10:30:51.312Z,57.08
2023-04-08T10:31:53.036Z,56.20
2023-04-08T10:33:00.380Z,56.48
2023-04-08T10:34:18.673Z,56.81
2023-04-08T10:35:35.602Z,57.10
2023-04-08T10:36:37.882Z,57.85
2023-04-08T10:37:39.541Z,56.91
2023-04-08T10:38:42.649Z,56.92
2023-04-08T10:39:49.395Z,56.68
2023-04-08T10:40:51.383Z,56.55
2023-04-08T10:41:52.982Z,56.20
2023-04-08T10:42:55.924Z,56.47
2023-04-08T10:43:57.246Z,57.00
2023-04-08T10:45:00.623Z,56.02
2023-04-08T10:46:02.426Z,56.66
2023-04-08T10:47:03.897Z,56.81
2023-04-08T10:48:18.747Z,56.45
2023-04-08T10:49:20.250Z,56.28
2023-04-08T10:50:23.658Z,57.41
2023-04-08T10:51:25.044Z,56.69
2023-04-08T10:52:27.759Z,57.15
2023-04-08T10:53:31.095Z,58.51
2023-04-08T10:54:32.855Z,57.81
2023-04-08T10:55:34.959Z,57.34
2023-04-08T10:56:43.601Z,57.71
2023-04-08T10:57:44.968Z,56.57
2023-04-08T10:58:56.129Z,56.19
2023-04-08T10:59:57.713Z,56.09
2023-04-08T11:01:08.420Z,58.04
2023-04-08T11:02:14.520Z,57.36
2023-04-08T11:03:17.055Z,56.58
2023-04-08T11:04:19.594Z,56.74
2023-04-08T11:05:23.283Z,58.67
2023-04-08T11:06:25.547Z,57.31
2023-04-08T11:07:27.227Z,56.97
2023-04-08T11:08:33.034Z,57.80
2023-04-08T11:09:34.435Z,58.47
2023-04-08T11:10:38.945Z,59.12
2023-04-08T11:11:45.385Z,59.51
2023-04-08T11:12:46.965Z,59.48
2023-04-08T11:13:53.170Z,59.05
2023-04-08T11:14:55.837Z,59.03
2023-04-08T11:15:59.961Z,57.79
2023-04-08T11:17:02.394Z,58.07
2023-04-08T11:18:05.400Z,59.46
2023-04-08T11:19:07.595Z,58.77
2023-04-08T11:20:09.641Z,57.68
2023-04-08T11:21:11.430Z,57.00
2023-04-08T11:22:13.428Z,57.46
2023-04-08T11:23:14.974Z,57.52
2023-04-08T11:24:16.959Z,58.70
2023-04-08T11:25:18.656Z,58.69
2023-04-08T11:26:21.096Z,59.03
2023-04-08T11:49:53.250Z,59.18
2023-04-08T11:51:12.274Z,57.68
2023-04-08T11:52:14.323Z,57.09
2023-04-08T11:53:18.109Z,57.42
2023-04-08T11:54:27.632Z,56.60
2023-04-08T11:55:31.337Z,55.69
2023-04-08T11:56:49.821Z,57.22
2023-04-08T11:57:52.723Z,57.66
2023-04-08T11:58:54.290Z,57.43
2023-04-08T11:59:55.783Z,57.95
2023-04-08T12:57:57.131Z,58.26
2023-04-08T13:00:07.593Z,57.47
2023-04-08T13:01:09.297Z,57.14
2023-04-08T13:02:11.126Z,57.61
2023-04-08T13:03:13.856Z,57.33
2023-04-08T13:04:15.483Z,57.57
2023-04-08T13:05:19.777Z,56.81
2023-04-08T13:06:23.014Z,56.79
2023-04-08T13:07:24.427Z,56.46
2023-04-08T13:08:26.016Z,56.35
2023-04-08T13:09:27.603Z,55.77
2023-04-08T13:10:29.201Z,55.66
2023-04-08T13:11:30.922Z,54.84
2023-04-08T13:12:32.596Z,55.12
2023-04-08T13:13:34.066Z,54.92
2023-04-08T13:14:36.045Z,55.25
2023-04-08T13:15:37.898Z,54.75
2023-04-08T13:16:39.261Z,56.25
2023-04-08T13:17:40.700Z,54.96
2023-04-08T13:18:42.802Z,54.66
2023-04-08T13:19:44.273Z,54.75
2023-04-08T13:20:45.789Z,54.35
2023-04-08T13:21:47.267Z,53.51
2023-04-08T13:22:48.994Z,52.76
2023-04-08T13:23:50.546Z,52.01
2023-04-08T13:24:52.101Z,52.99
2023-04-08T13:25:53.442Z,53.55
2023-04-08T13:26:54.908Z,53.73
2023-04-08T13:27:56.264Z,53.14
2023-04-08T13:28:58.398Z,52.43
2023-04-08T13:30:00.247Z,52.94
2023-04-08T13:31:01.680Z,53.05
2023-04-08T13:32:03.229Z,53.94
2023-04-08T13:33:04.804Z,54.16
2023-04-08T13:34:06.379Z,54.17
2023-04-08T13:35:08.225Z,53.78
2023-04-08T13:36:09.588Z,53.95
2023-04-08T13:37:11.385Z,53.71
2023-04-08T13:38:12.786Z,53.28
2023-04-08T13:39:14.149Z,52.62
2023-04-08T13:40:15.555Z,53.22
2023-04-08T13:41:17.473Z,53.63
2023-04-08T13:42:18.964Z,54.33
2023-04-08T13:43:20.604Z,54.21
2023-04-08T13:44:21.953Z,54.66
2023-04-08T13:45:23.560Z,54.09
2023-04-08T13:46:25.128Z,53.94
2023-04-08T13:47:27.116Z,54.48
2023-04-08T13:48:28.544Z,54.83
2023-04-08T13:49:29.986Z,54.93
2023-04-08T13:50:31.367Z,53.92
2023-04-08T13:51:32.802Z,53.51
2023-04-08T13:52:34.551Z,54.15
2023-04-08T13:53:36.266Z,54.09
2023-04-08T13:54:37.816Z,53.27
2023-04-08T13:55:39.175Z,53.44
2023-04-08T13:56:40.771Z,54.00
2023-04-08T13:57:42.303Z,54.64
2023-04-08T13:58:44.744Z,54.25
2023-04-08T13:59:47.642Z,54.74
2023-04-08T14:00:49.162Z,54.07
2023-04-08T14:01:54.084Z,54.27
2023-04-08T14:02:55.793Z,54.32
2023-04-08T14:03:57.314Z,54.75
2023-04-08T14:04:58.713Z,54.95
2023-04-08T14:06:01.826Z,55.24
2023-04-08T14:07:03.427Z,55.07
2023-04-08T14:08:04.943Z,55.20
2023-04-08T14:09:06.756Z,55.01
2023-04-08T14:10:08.735Z,55.05
2023-04-08T14:11:10.430Z,55.79
2023-04-08T14:12:11.859Z,54.64
2023-04-08T14:13:13.186Z,54.81
2023-04-08T14:14:14.605Z,54.94
2023-04-08T14:15:16.311Z,55.16
2023-04-08T14:16:17.786Z,55.52
2023-04-08T14:17:19.230Z,55.45
2023-04-08T14:18:20.880Z,55.49
2023-04-08T14:19:22.379Z,55.69
2023-04-08T14:20:23.801Z,55.29
2023-04-08T14:21:25.947Z,55.14
2023-04-08T14:22:27.365Z,55.73
2023-04-08T14:23:28.770Z,55.32
2023-04-08T14:24:30.231Z,53.96
2023-04-08T14:25:32.417Z,54.35
2023-04-08T14:26:35.949Z,53.97
2023-04-08T14:27:47.497Z,54.64
2023-04-08T14:28:56.876Z,54.14
2023-04-08T14:29:58.252Z,54.17
2023-04-08T14:30:59.835Z,55.00
2023-04-08T14:32:01.322Z,54.78
2023-04-08T14:33:02.875Z,55.40
2023-04-08T14:34:04.977Z,54.45
2023-04-08T14:35:08.725Z,54.00
2023-04-08T14:36:10.852Z,53.35
2023-04-08T14:37:12.711Z,53.53
2023-04-08T14:38:14.119Z,53.17
2023-04-08T14:39:15.813Z,52.93
2023-04-08T14:40:17.225Z,52.73
2023-04-08T14:41:18.595Z,51.41
2023-04-08T14:42:20.925Z,51.55
2023-04-08T14:43:22.295Z,50.51
2023-04-08T14:44:24.092Z,50.62
2023-04-08T14:45:25.654Z,50.30
2023-04-08T14:46:28.761Z,49.90
2023-04-08T14:47:30.667Z,49.83
2023-04-08T14:48:32.086Z,49.47
2023-04-08T14:49:33.559Z,48.14
2023-04-08T14:50:34.940Z,47.92
2023-04-08T14:51:37.746Z,47.46
2023-04-08T14:52:39.127Z,46.29
2023-04-08T14:53:40.593Z,45.98
2023-04-08T14:54:43.150Z,45.90
2023-04-08T14:55:44.522Z,45.38
2023-04-08T14:56:46.111Z,44.72
2023-04-08T14:57:47.773Z,44.77
2023-04-08T14:58:49.255Z,45.58
2023-04-08T14:59:51.379Z,46.49
2023-04-08T15:00:52.849Z,46.30
2023-04-08T15:01:54.290Z,46.35
2023-04-08T15:02:56.038Z,46.99
2023-04-08T15:03:57.609Z,46.89
2023-04-08T15:04:59.024Z,46.59
2023-04-08T15:06:01.255Z,46.15
2023-04-08T15:07:03.703Z,47.38
2023-04-08T15:08:05.459Z,47.31
2023-04-08T15:09:06.953Z,48.39
2023-04-08T15:10:09.092Z,49.56
2023-04-08T15:11:10.646Z,50.04
2023-04-08T15:12:13.668Z,50.19
2023-04-08T15:13:15.494Z,50.32
2023-04-08T15:14:16.831Z,51.12
2023-04-08T15:15:18.208Z,51.84
2023-04-08T15:16:19.715Z,52.16
2023-04-08T15:17:21.188Z,52.37
2023-04-08T15:18:22.592Z,52.68
2023-04-08T15:19:23.960Z,52.80
2023-04-08T15:20:25.397Z,52.99
2023-04-08T15:21:27.239Z,53.23
